createdAt,value
2024-05-09T00:00:35.302Z,99.90
2024-05-09T00:03:06.012Z,99.90
2024-05-09T00:05:33.525Z,99.90
2024-05-09T00:08:01.013Z,99.90
2024-05-09T00:10:35.443Z,99.90
2024-05-09T00:13:05.363Z,99.90
2024-05-09T00:15:32.822Z,99.90
2024-05-09T00:18:00.299Z,99.90
2024-05-09T00:20:36.037Z,99.90
2024-05-09T00:23:07.288Z,99.90
2024-05-09T00:25:35.409Z,99.90
2024-05-09T00:28:02.980Z,99.90
2024-05-09T00:30:35.045Z,99.90
2024-05-09T00:33:05.175Z,99.90
2024-05-09T00:35:33.690Z,99.90
2024-05-09T00:38:01.302Z,99.90
2024-05-09T00:40:37.258Z,99.90
2024-05-09T00:43:07.066Z,99.90
2024-05-09T00:45:35.486Z,99.90
2024-05-09T00:48:03.194Z,99.90
2024-05-09T00:50:36.273Z,99.90
2024-05-09T00:53:05.165Z,99.90
2024-05-09T00:55:32.537Z,99.90
2024-05-09T00:57:59.852Z,99.90
2024-05-09T01:00:35.502Z,99.90
2024-05-09T01:03:11.989Z,99.90
2024-05-09T01:05:41.247Z,99.90
2024-05-09T01:08:09.339Z,99.90
2024-05-09T01:10:37.001Z,99.90
2024-05-09T01:13:04.654Z,99.90
2024-05-09T01:15:32.215Z,99.90
2024-05-09T01:17:59.709Z,99.90
2024-05-09T01:20:37.228Z,99.90
2024-05-09T01:23:09.771Z,99.90
2024-05-09T01:25:37.472Z,99.90
2024-05-09T01:28:04.796Z,99.90
2024-05-09T01:30:35.457Z,99.90
2024-05-09T01:33:05.401Z,99.90
2024-05-09T01:35:34.135Z,99.90
2024-05-09T01:38:01.565Z,99.90
2024-05-09T01:40:36.655Z,99.90
2024-05-09T01:43:06.841Z,99.90
2024-05-09T01:45:34.442Z,99.90
2024-05-09T01:48:02.698Z,99.90
2024-05-09T01:50:38.137Z,99.90
2024-05-09T01:53:08.799Z,99.90
2024-05-09T01:55:36.299Z,99.90
2024-05-09T01:58:03.631Z,99.90
2024-05-09T02:00:38.339Z,99.90
2024-05-09T02:03:08.986Z,99.90
2024-05-09T02:05:36.848Z,99.90
2024-05-09T02:08:04.362Z,99.90
2024-05-09T02:10:33.002Z,99.90
2024-05-09T02:13:01.010Z,99.90
2024-05-09T02:15:28.455Z,99.90
2024-05-09T02:17:55.915Z,99.90
2024-05-09T02:20:30.642Z,99.90
2024-05-09T02:23:03.349Z,99.90
2024-05-09T02:25:30.707Z,99.90
2024-05-09T02:27:58.047Z,99.90
2024-05-09T02:30:35.153Z,99.90
2024-05-09T02:33:07.529Z,99.90
2024-05-09T02:35:35.323Z,99.90
2024-05-09T02:38:02.786Z,99.90
2024-05-09T02:40:36.671Z,99.90
2024-05-09T02:43:06.344Z,99.90
2024-05-09T02:45:33.893Z,99.90
2024-05-09T02:48:01.944Z,99.90
2024-05-09T02:50:36.890Z,99.90
2024-05-09T02:53:06.788Z,99.90
2024-05-09T02:55:34.117Z,99.90
2024-05-09T02:58:01.436Z,99.90
2024-05-09T03:00:36.942Z,99.90
2024-05-09T03:03:08.779Z,99.90
2024-05-09T03:05:37.472Z,99.90
2024-05-09T03:08:05.036Z,99.90
2024-05-09T03:10:36.287Z,99.90
2024-05-09T03:13:05.710Z,99.90
2024-05-09T03:15:33.297Z,99.90
2024-05-09T03:18:01.034Z,99.90
2024-05-09T03:20:34.006Z,99.90
2024-05-09T03:23:03.362Z,99.90
2024-05-09T03:25:30.950Z,99.90
2024-05-09T03:27:58.299Z,99.90
2024-05-09T03:30:34.625Z,99.90
2024-05-09T03:33:07.271Z,99.90
2024-05-09T03:35:34.856Z,99.90
2024-05-09T03:38:02.210Z,99.90
2024-05-09T03:40:31.080Z,99.90
2024-05-09T03:42:58.685Z,99.90
2024-05-09T03:45:26.030Z,99.90
2024-05-09T03:47:53.639Z,99.90
2024-05-09T03:50:26.436Z,99.90
2024-05-09T03:53:01.214Z,99.90
2024-05-09T03:55:28.613Z,99.90
2024-05-09T03:57:55.917Z,99.90
2024-05-09T04:00:31.255Z,99.90
2024-05-09T04:03:05.911Z,99.90
2024-05-09T04:05:35.093Z,99.90
2024-05-09T04:08:02.601Z,99.90
2024-05-09T04:10:34.191Z,99.90
2024-05-09T04:13:03.029Z,99.90
2024-05-09T04:15:30.720Z,99.90
2024-05-09T04:17:58.333Z,99.90
2024-05-09T04:20:36.015Z,99.90
2024-05-09T04:23:07.193Z,99.90
2024-05-09T04:25:35.352Z,99.90
2024-05-09T04:28:02.661Z,99.90
2024-05-09T04:30:36.663Z,99.90
2024-05-09T04:33:08.866Z,99.90
2024-05-09T04:35:38.400Z,99.90
2024-05-09T04:38:06.558Z,99.90
2024-05-09T04:40:36.431Z,99.90
2024-05-09T04:43:04.826Z,99.90
2024-05-09T04:45:32.154Z,99.90
2024-05-09T04:47:59.898Z,99.90
2024-05-09T04:50:36.034Z,99.90
2024-05-09T04:53:06.478Z,99.90
2024-05-09T04:55:34.372Z,99.90
2024-05-09T04:58:01.912Z,99.90
2024-05-09T05:00:35.853Z,99.90
2024-05-09T05:03:05.351Z,99.90
2024-05-09T05:05:33.064Z,99.90
2024-05-09T05:08:00.462Z,99.90
2024-05-09T05:10:33.866Z,99.90
2024-05-09T05:13:03.767Z,99.90
2024-05-09T05:15:31.094Z,99.90
2024-05-09T05:17:58.575Z,99.90
2024-05-09T05:20:32.731Z,99.90
2024-05-09T05:23:01.254Z,99.90
2024-05-09T05:25:28.679Z,99.90
2024-05-09T05:27:55.968Z,99.90
2024-05-09T05:30:28.989Z,99.90
2024-05-09T05:33:00.644Z,99.90
2024-05-09T05:35:28.428Z,99.90
2024-05-09T05:37:55.976Z,99.90
2024-05-09T05:40:32.207Z,99.90
2024-05-09T05:43:03.256Z,99.90
2024-05-09T05:45:30.598Z,99.90
2024-05-09T05:47:58.047Z,99.90
2024-05-09T05:50:32.471Z,99.90
2024-05-09T05:53:03.626Z,99.90
2024-05-09T05:55:31.015Z,99.90
2024-05-09T05:57:58.301Z,99.90
2024-05-09T06:00:30.119Z,99.90
2024-05-09T06:03:05.184Z,99.90
2024-05-09T06:05:32.937Z,99.90
2024-05-09T06:08:00.670Z,99.90
2024-05-09T06:10:37.323Z,99.90
2024-05-09T06:13:07.158Z,99.90
2024-05-09T06:15:34.525Z,99.90
2024-05-09T06:18:02.152Z,99.90
2024-05-09T06:20:36.177Z,99.90
2024-05-09T06:23:05.508Z,99.90
2024-05-09T06:25:33.081Z,99.90
2024-05-09T06:28:00.514Z,99.90
2024-05-09T06:30:36.775Z,99.90
2024-05-09T06:33:07.700Z,99.90
2024-05-09T06:35:36.022Z,99.90
2024-05-09T06:38:03.561Z,99.90
2024-05-09T06:40:37.282Z,99.90
2024-05-09T06:43:06.752Z,99.90
2024-05-09T06:45:34.092Z,99.90
2024-05-09T06:48:01.520Z,99.90
2024-05-09T06:50:35.729Z,99.90
2024-05-09T06:53:05.661Z,99.90
2024-05-09T06:55:33.055Z,99.90
2024-05-09T06:58:00.415Z,99.90
2024-05-09T07:00:35.539Z,99.90
2024-05-09T07:03:06.903Z,99.90
2024-05-09T07:05:34.460Z,99.90
2024-05-09T07:08:01.801Z,99.90
2024-05-09T07:10:34.459Z,99.90
2024-05-09T07:13:03.165Z,99.90
2024-05-09T07:15:30.440Z,99.90
2024-05-09T07:17:57.925Z,99.90
2024-05-09T07:20:33.740Z,99.90
2024-05-09T07:23:02.499Z,99.90
2024-05-09T07:25:30.286Z,99.90
2024-05-09T07:27:57.856Z,99.90
2024-05-09T07:30:32.696Z,99.90
2024-05-09T07:33:02.544Z,99.90
2024-05-09T07:35:30.891Z,99.90
2024-05-09T07:37:58.551Z,99.90
2024-05-09T07:40:33.154Z,99.90
2024-05-09T07:43:03.700Z,99.90
2024-05-09T07:45:47.895Z,99.90
2024-05-09T07:53:38.242Z,99.90
2024-05-09T07:56:06.303Z,99.90
2024-05-09T07:58:33.758Z,99.90
2024-05-09T08:01:01.244Z,99.90
2024-05-09T08:03:28.845Z,99.90
2024-05-09T08:05:56.252Z,99.90
2024-05-09T08:08:23.582Z,99.90
2024-05-09T08:10:51.121Z,99.90
2024-05-09T08:13:18.791Z,99.90
2024-05-09T08:15:46.280Z,99.90
2024-05-09T08:18:13.828Z,99.90
2024-05-09T08:20:41.193Z,99.90
2024-05-09T08:23:08.498Z,99.90
2024-05-09T08:25:35.823Z,99.90
2024-05-09T08:28:03.185Z,99.90
2024-05-09T08:30:36.474Z,99.90
2024-05-09T08:33:06.080Z,99.90
2024-05-09T08:35:34.237Z,99.90
2024-05-09T08:38:01.878Z,99.90
2024-05-09T08:40:34.454Z,99.90
2024-05-09T08:43:04.781Z,99.90
2024-05-09T08:45:32.226Z,99.90
2024-05-09T08:47:59.687Z,99.90
2024-05-09T08:50:35.468Z,99.90
2024-05-09T08:53:05.921Z,99.90
2024-05-09T08:55:33.271Z,99.90
2024-05-09T08:58:00.598Z,99.90
2024-05-09T09:00:35.778Z,99.90
2024-05-09T09:03:04.740Z,99.90
2024-05-09T09:05:32.465Z,99.90
2024-05-09T09:07:59.842Z,99.90
2024-05-09T09:10:32.015Z,99.90
2024-05-09T09:13:00.848Z,99.90
2024-05-09T09:15:28.340Z,99.90
2024-05-09T09:17:55.815Z,99.90
2024-05-09T09:20:29.220Z,99.90
2024-05-09T09:23:02.859Z,99.90
2024-05-09T09:25:30.223Z,99.90
2024-05-09T09:27:58.056Z,99.90
2024-05-09T09:30:34.768Z,99.90
2024-05-09T09:33:05.468Z,99.90
2024-05-09T09:35:33.069Z,99.90
2024-05-09T09:38:00.358Z,99.90
2024-05-09T09:40:32.145Z,99.90
2024-05-09T09:43:01.358Z,99.90
2024-05-09T09:45:28.773Z,99.90
2024-05-09T09:47:56.165Z,99.90
2024-05-09T09:50:31.341Z,99.90
2024-05-09T09:53:01.621Z,99.90
2024-05-09T09:55:29.116Z,99.90
2024-05-09T09:57:56.565Z,99.90
2024-05-09T10:00:29.997Z,99.90
2024-05-09T10:03:00.413Z,99.90
2024-05-09T10:05:28.245Z,99.90
2024-05-09T10:07:55.755Z,99.30
2024-05-09T10:10:30.284Z,99.90
2024-05-09T10:13:00.350Z,99.90
2024-05-09T10:15:27.982Z,99.90
2024-05-09T10:17:55.455Z,99.90
2024-05-09T10:20:27.948Z,99.90
2024-05-09T10:22:58.244Z,99.90
2024-05-09T10:25:25.681Z,99.90
2024-05-09T10:27:53.019Z,99.90
2024-05-09T10:30:25.989Z,99.90
2024-05-09T10:32:57.396Z,99.60
2024-05-09T10:35:24.722Z,98.70
2024-05-09T10:37:52.029Z,98.90
2024-05-09T10:40:25.883Z,99.30
2024-05-09T10:42:56.778Z,99.90
2024-05-09T10:45:24.199Z,99.90
2024-05-09T10:47:51.775Z,99.90
2024-05-09T10:50:25.704Z,99.20
2024-05-09T10:52:56.357Z,99.40
2024-05-09T10:55:23.790Z,98.80
2024-05-09T10:57:51.262Z,99.90
2024-05-09T11:00:27.391Z,98.00
2024-05-09T11:03:00.535Z,99.90
2024-05-09T11:05:28.220Z,97.10
2024-05-09T11:07:55.665Z,97.70
2024-05-09T11:10:27.834Z,99.60
2024-05-09T11:13:00.986Z,97.30
2024-05-09T11:15:28.304Z,97.90
2024-05-09T11:17:55.676Z,95.30
2024-05-09T11:20:29.330Z,96.60
2024-05-09T11:22:57.433Z,96.80
2024-05-09T11:25:25.842Z,97.50
2024-05-09T11:27:53.264Z,95.30
2024-05-09T11:30:27.046Z,96.20
2024-05-09T11:32:59.265Z,96.70
2024-05-09T11:35:26.685Z,95.20
2024-05-09T11:37:53.956Z,96.10
2024-05-09T11:40:25.657Z,98.30
2024-05-09T11:42:59.369Z,98.50
2024-05-09T11:45:26.747Z,98.20
2024-05-09T11:47:54.218Z,94.20
2024-05-09T11:50:27.298Z,96.20
2024-05-09T11:52:59.825Z,97.40
2024-05-09T11:55:28.405Z,94.80
2024-05-09T11:57:56.058Z,93.10
2024-05-09T12:00:29.787Z,91.50
2024-05-09T12:03:03.936Z,92.30
2024-05-09T12:05:31.529Z,92.40
2024-05-09T12:07:58.912Z,95.30
2024-05-09T12:10:32.443Z,92.50
2024-05-09T12:13:03.134Z,96.30
2024-05-09T12:15:31.706Z,93.60
2024-05-09T12:18:01.651Z,96.90
2024-05-09T12:20:36.747Z,94.50
2024-05-09T12:23:06.778Z,93.80
2024-05-09T12:25:34.182Z,92.00
2024-05-09T12:28:01.573Z,91.30
2024-05-09T12:30:36.248Z,92.20
2024-05-09T12:33:06.773Z,91.60
2024-05-09T12:35:34.206Z,90.60
2024-05-09T12:38:01.511Z,92.70
2024-05-09T12:40:35.703Z,91.10
2024-05-09T12:43:05.505Z,92.30
2024-05-09T12:45:33.064Z,91.00
2024-05-09T12:48:00.716Z,92.20
2024-05-09T12:50:32.677Z,94.30
2024-05-09T12:53:02.597Z,93.00
2024-05-09T12:55:37.184Z,92.60
2024-05-09T12:58:12.075Z,91.50
2024-05-09T13:00:39.764Z,91.90
2024-05-09T13:03:07.273Z,91.90
2024-05-09T13:05:34.889Z,91.10
2024-05-09T13:08:02.307Z,92.70
2024-05-09T13:10:32.721Z,90.50
2024-05-09T13:13:01.791Z,93.70
2024-05-09T13:15:29.504Z,90.50
2024-05-09T13:17:59.451Z,90.70
2024-05-09T13:20:33.252Z,92.10
2024-05-09T13:23:02.714Z,91.80
2024-05-09T13:25:30.070Z,91.10
2024-05-09T13:27:57.522Z,91.00
2024-05-09T13:30:33.770Z,90.90
2024-05-09T13:33:06.948Z,91.70
2024-05-09T13:35:35.311Z,88.30
2024-05-09T13:38:03.721Z,90.00
2024-05-09T13:40:34.695Z,92.20
2024-05-09T13:43:03.788Z,90.50
2024-05-09T13:45:31.501Z,89.20
2024-05-09T13:47:59.245Z,90.50
2024-05-09T13:50:33.677Z,89.90
2024-05-09T13:53:03.558Z,89.40
2024-05-09T13:55:30.878Z,91.20
2024-05-09T13:57:58.320Z,89.80
2024-05-09T14:00:38.002Z,90.80
2024-05-09T14:03:12.241Z,85.90
2024-05-09T14:05:39.902Z,87.90
2024-05-09T14:08:07.284Z,89.80
2024-05-09T14:10:34.753Z,90.40
2024-05-09T14:13:02.235Z,85.30
2024-05-09T14:15:29.671Z,89.60
2024-05-09T14:17:57.062Z,86.60
2024-05-09T14:20:30.906Z,88.10
2024-05-09T14:22:59.983Z,86.70
2024-05-09T14:25:27.647Z,88.40
2024-05-09T14:27:55.048Z,84.90
2024-05-09T14:30:30.404Z,87.60
2024-05-09T14:33:04.003Z,86.90
2024-05-09T14:35:31.744Z,82.40
2024-05-09T14:37:59.231Z,84.30
2024-05-09T14:40:36.948Z,83.60
2024-05-09T14:43:11.828Z,83.50
2024-05-09T14:45:39.660Z,82.90
2024-05-09T14:48:07.292Z,83.60
2024-05-09T14:50:38.173Z,87.60
2024-05-09T14:53:07.772Z,86.30
2024-05-09T14:55:36.580Z,85.50
2024-05-09T14:58:05.026Z,83.30
2024-05-09T15:00:35.942Z,84.20
2024-05-09T15:03:04.758Z,82.50
2024-05-09T15:05:32.380Z,85.70
2024-05-09T15:07:59.815Z,83.10
2024-05-09T15:10:34.169Z,84.70
2024-05-09T15:13:03.851Z,80.00
2024-05-09T15:15:31.507Z,80.40
2024-05-09T15:17:59.070Z,81.10
2024-05-09T15:20:34.324Z,82.40
2024-05-09T15:23:04.017Z,85.20
2024-05-09T15:25:31.553Z,82.30
2024-05-09T15:27:58.987Z,77.80
2024-05-09T15:32:56.712Z,82.60
2024-05-09T15:35:24.061Z,82.80
2024-05-09T15:37:51.351Z,80.70
2024-05-09T15:40:26.578Z,80.90
2024-05-09T15:43:02.897Z,80.90
2024-05-09T15:45:30.345Z,82.50
2024-05-09T15:47:58.064Z,80.30
2024-05-09T15:50:35.250Z,83.90
2024-05-09T15:53:06.989Z,81.70
2024-05-09T15:55:35.085Z,82.20
2024-05-09T15:58:02.779Z,81.90
2024-05-09T16:00:37.452Z,80.90
2024-05-09T16:03:08.490Z,80.60
2024-05-09T16:05:36.240Z,83.00
2024-05-09T16:08:03.668Z,83.70
2024-05-09T16:10:33.228Z,84.40
2024-05-09T16:13:02.641Z,84.70
2024-05-09T16:15:30.745Z,83.30
2024-05-09T16:17:58.244Z,80.90
2024-05-09T16:20:34.326Z,82.20
2024-05-09T16:23:06.912Z,81.60
2024-05-09T16:25:34.281Z,84.00
2024-05-09T16:28:02.014Z,83.10
2024-05-09T16:30:34.794Z,78.40
2024-05-09T16:33:04.070Z,81.60
2024-05-09T16:35:32.244Z,79.80
2024-05-09T16:37:59.544Z,80.40
2024-05-09T16:40:36.083Z,83.70
2024-05-09T16:43:07.545Z,84.00
2024-05-09T16:45:35.456Z,85.50
2024-05-09T16:48:02.931Z,84.50
2024-05-09T16:50:33.367Z,83.80
2024-05-09T16:53:02.587Z,82.90
2024-05-09T16:55:30.018Z,82.20
2024-05-09T16:57:57.526Z,84.00
2024-05-09T17:00:35.870Z,83.00
2024-05-09T17:03:09.913Z,82.00
2024-05-09T17:05:38.274Z,83.90
2024-05-09T17:08:05.924Z,84.90
2024-05-09T17:10:35.050Z,86.60
2024-05-09T17:13:03.843Z,85.10
2024-05-09T17:15:32.049Z,86.00
2024-05-09T17:17:59.500Z,84.30
2024-05-09T17:20:33.023Z,86.30
2024-05-09T17:23:03.306Z,83.80
2024-05-09T17:25:30.680Z,87.00
2024-05-09T17:27:58.027Z,85.90
2024-05-09T17:30:32.345Z,88.00
2024-05-09T17:33:03.647Z,84.50
2024-05-09T17:35:31.217Z,87.50
2024-05-09T17:37:58.517Z,90.50
2024-05-09T17:40:32.507Z,88.80
2024-05-09T17:43:03.324Z,90.20
2024-05-09T17:45:31.101Z,90.70
2024-05-09T17:47:58.805Z,91.80
2024-05-09T17:50:31.814Z,91.90
2024-05-09T17:53:03.093Z,92.90
2024-05-09T17:55:30.538Z,94.00
2024-05-09T17:57:58.147Z,93.60
2024-05-09T18:00:36.277Z,94.60
2024-05-09T18:03:07.445Z,94.90
2024-05-09T18:05:35.961Z,95.60
2024-05-09T18:08:04.097Z,95.80
2024-05-09T18:10:36.691Z,95.70
2024-05-09T18:13:07.160Z,96.00
2024-05-09T18:15:35.150Z,96.80
2024-05-09T18:18:03.276Z,97.10
2024-05-09T18:20:40.562Z,97.50
2024-05-09T18:23:11.826Z,97.10
2024-05-09T18:25:39.287Z,97.90
2024-05-09T18:28:06.810Z,98.60
2024-05-09T18:30:36.246Z,98.20
2024-05-09T18:33:05.912Z,99.10
2024-05-09T18:35:34.625Z,99.20
2024-05-09T18:38:02.076Z,99.70
2024-05-09T18:40:34.412Z,99.50
2024-05-09T18:43:04.901Z,99.90
2024-05-09T18:45:33.328Z,99.90
2024-05-09T18:48:00.904Z,99.90
2024-05-09T18:50:34.915Z,99.90
2024-05-09T18:53:05.663Z,99.90
2024-05-09T18:55:33.141Z,99.90
2024-05-09T18:58:00.808Z,99.90
2024-05-09T19:00:34.667Z,99.90
2024-05-09T19:03:06.345Z,99.90
2024-05-09T19:05:34.555Z,99.90
2024-05-09T19:08:02.225Z,99.90
2024-05-09T19:10:34.234Z,99.90
2024-05-09T19:13:06.854Z,99.90
2024-05-09T19:15:38.497Z,99.90
2024-05-09T19:18:06.538Z,99.90
2024-05-09T19:20:35.751Z,99.90
2024-05-09T19:23:04.332Z,99.90
2024-05-09T19:25:31.847Z,99.90
2024-05-09T19:27:59.273Z,99.90
2024-05-09T19:30:36.362Z,99.90
2024-05-09T19:33:08.045Z,99.90
2024-05-09T19:35:35.578Z,99.90
2024-05-09T19:38:02.904Z,99.90
2024-05-09T19:40:32.544Z,99.90
2024-05-09T19:43:02.465Z,99.90
2024-05-09T19:45:30.508Z,99.90
2024-05-09T19:47:58.091Z,99.90
2024-05-09T19:50:35.674Z,99.90
2024-05-09T19:53:08.480Z,99.90
2024-05-09T19:55:35.853Z,99.90
2024-05-09T19:58:05.290Z,99.90
2024-05-09T20:00:36.248Z,99.90
2024-05-09T20:03:05.677Z,99.90
2024-05-09T20:05:33.630Z,99.90
2024-05-09T20:08:01.501Z,99.90
2024-05-09T20:10:32.689Z,99.90
2024-05-09T20:13:02.648Z,99.90
2024-05-09T20:15:30.184Z,99.90
2024-05-09T20:17:57.727Z,99.90
2024-05-09T20:20:33.658Z,99.90
2024-05-09T20:23:05.717Z,99.90
2024-05-09T20:25:33.196Z,99.90
2024-05-09T20:28:00.771Z,99.90
2024-05-09T20:30:32.360Z,99.90
2024-05-09T20:33:01.764Z,99.90
2024-05-09T20:35:29.447Z,99.90
2024-05-09T20:37:56.707Z,99.90
2024-05-09T20:40:29.245Z,99.90
2024-05-09T20:43:00.884Z,99.90
2024-05-09T20:45:28.308Z,99.90
2024-05-09T20:47:56.035Z,99.90
2024-05-09T20:50:32.427Z,99.90
2024-05-09T20:53:05.402Z,99.90
2024-05-09T20:55:32.704Z,99.90
2024-05-09T20:58:00.021Z,99.90
2024-05-09T21:00:35.391Z,99.90
2024-05-09T21:03:07.762Z,99.90
2024-05-09T21:05:35.851Z,99.90
2024-05-09T21:08:03.417Z,99.90
2024-05-09T21:10:33.301Z,99.90
2024-05-09T21:13:02.690Z,99.90
2024-05-09T21:15:30.906Z,99.90
2024-05-09T21:17:58.746Z,99.90
2024-05-09T21:20:31.629Z,99.90
2024-05-09T21:23:00.409Z,99.90
2024-05-09T21:25:27.934Z,99.90
2024-05-09T21:27:55.520Z,99.90
2024-05-09T21:30:32.364Z,99.90
2024-05-09T21:33:08.468Z,99.90
2024-05-09T21:35:36.292Z,99.90
2024-05-09T21:38:03.610Z,99.90
2024-05-09T21:40:34.612Z,99.90
2024-05-09T21:43:03.606Z,99.90
2024-05-09T21:45:31.305Z,99.90
2024-05-09T21:47:58.965Z,99.90
2024-05-09T21:50:36.144Z,99.90
2024-05-09T21:53:07.621Z,99.90
2024-05-09T21:55:35.046Z,99.90
2024-05-09T21:58:03.170Z,99.90
2024-05-09T22:00:36.611Z,99.90
2024-05-09T22:03:06.047Z,99.90
2024-05-09T22:05:33.937Z,99.90
2024-05-09T22:08:01.526Z,99.90
2024-05-09T22:10:33.866Z,99.90
2024-05-09T22:13:04.033Z,99.90
2024-05-09T22:15:31.695Z,99.90
2024-05-09T22:17:59.119Z,99.90
2024-05-09T22:20:34.468Z,99.90
2024-05-09T22:23:05.347Z,99.90
2024-05-09T22:25:33.240Z,99.90
2024-05-09T22:28:01.269Z,99.90
2024-05-09T22:30:35.834Z,99.90
2024-05-09T22:33:06.695Z,99.90
2024-05-09T22:35:34.258Z,99.90
2024-05-09T22:38:01.564Z,99.90
2024-05-09T22:40:38.547Z,99.90
2024-05-09T22:43:13.997Z,99.90
2024-05-09T22:45:41.609Z,99.90
2024-05-09T22:48:09.394Z,99.90
2024-05-09T22:50:36.864Z,99.90
2024-05-09T22:53:04.200Z,99.90
2024-05-09T22:55:31.493Z,99.90
2024-05-09T22:57:58.889Z,99.90
2024-05-09T23:00:31.298Z,99.90
2024-05-09T23:03:00.343Z,99.90
2024-05-09T23:05:28.027Z,99.90
2024-05-09T23:07:55.491Z,99.90
2024-05-09T23:10:30.905Z,99.90
2024-05-09T23:13:02.789Z,99.90
2024-05-09T23:15:30.328Z,99.90
2024-05-09T23:17:58.228Z,99.90
2024-05-09T23:20:33.496Z,99.90
2024-05-09T23:23:05.328Z,99.90
2024-05-09T23:25:32.733Z,99.90
2024-05-09T23:28:00.172Z,99.90
2024-05-09T23:30:36.039Z,99.90
2024-05-09T23:33:07.013Z,99.90
2024-05-09T23:35:34.553Z,99.90
2024-05-09T23:38:01.903Z,99.90
2024-05-09T23:40:37.853Z,99.90
2024-05-09T23:43:07.877Z,99.90
2024-05-09T23:45:35.415Z,99.90
2024-05-09T23:48:03.321Z,99.90
2024-05-09T23:50:35.423Z,99.90
2024-05-09T23:53:05.595Z,99.90
2024-05-09T23:55:33.274Z,99.90
2024-05-09T23:58:00.891Z,99.90
